sensor_id;sensor_type;location;lat;lon;timestamp;pressure;altitude;pressure_sealevel;temperature;humidity
44481;BME280;30184;42.018;23.670;2024-02-21T00:00:15;92088.63;;;0.67;83.97
44481;BME280;30184;42.018;23.670;2024-02-21T00:02:45;92070.69;;;0.45;83.17
44481;BME280;30184;42.018;23.670;2024-02-21T00:05:14;92030.44;;;0.57;83.08
44481;BME280;30184;42.018;23.670;2024-02-21T00:07:44;92065.66;;;0.85;82.89
44481;BME280;30184;42.018;23.670;2024-02-21T00:10:14;92064.94;;;0.88;82.92
44481;BME280;30184;42.018;23.670;2024-02-21T00:12:44;92058.72;;;0.81;82.97
44481;BME280;30184;42.018;23.670;2024-02-21T00:15:14;91869.75;;;-0.44;82.55
44481;BME280;30184;42.018;23.670;2024-02-21T00:17:44;92026.72;;;0.61;82.67
44481;BME280;30184;42.018;23.670;2024-02-21T00:20:13;91965.19;;;0.31;82.78
44481;BME280;30184;42.018;23.670;2024-02-21T00:22:42;92064.34;;;0.98;82.95
44481;BME280;30184;42.018;23.670;2024-02-21T00:25:12;92051.75;;;0.99;82.95
44481;BME280;30184;42.018;23.670;2024-02-21T00:27:41;91934.19;;;0.23;82.86
44481;BME280;30184;42.018;23.670;2024-02-21T00:30:13;92049.19;;;1.06;82.86
44481;BME280;30184;42.018;23.670;2024-02-21T00:32:42;92043.84;;;1.06;82.87
44481;BME280;30184;42.018;23.670;2024-02-21T00:35:12;92009.09;;;0.80;83.07
44481;BME280;30184;42.018;23.670;2024-02-21T00:37:42;91949.78;;;0.44;82.95
44481;BME280;30184;42.018;23.670;2024-02-21T00:40:11;92043.91;;;1.09;82.88
44481;BME280;30184;42.018;23.670;2024-02-21T00:42:44;92049.25;;;1.09;82.95
44481;BME280;30184;42.018;23.670;2024-02-21T00:45:15;91971.94;;;0.48;82.48
44481;BME280;30184;42.018;23.670;2024-02-21T00:47:44;91918.53;;;-0.01;82.08
44481;BME280;30184;42.018;23.670;2024-02-21T00:50:14;92072.44;;;1.02;82.06
44481;BME280;30184;42.018;23.670;2024-02-21T00:52:43;91899.06;;;0.21;82.82
44481;BME280;30184;42.018;23.670;2024-02-21T00:55:13;91964.69;;;0.71;82.36
44481;BME280;30184;42.018;23.670;2024-02-21T00:57:43;91842.09;;;-0.58;82.40
44481;BME280;30184;42.018;23.670;2024-02-21T01:00:13;92029.47;;;1.14;82.48
44481;BME280;30184;42.018;23.670;2024-02-21T01:02:44;91913.25;;;0.25;82.19
44481;BME280;30184;42.018;23.670;2024-02-21T01:05:13;91892.38;;;0.08;81.94
44481;BME280;30184;42.018;23.670;2024-02-21T01:07:42;92036.00;;;1.17;82.23
44481;BME280;30184;42.018;23.670;2024-02-21T01:10:12;92065.41;;;1.17;82.17
44481;BME280;30184;42.018;23.670;2024-02-21T01:12:41;92063.50;;;1.17;81.71
44481;BME280;30184;42.018;23.670;2024-02-21T01:15:10;92025.66;;;1.15;81.58
44481;BME280;30184;42.018;23.670;2024-02-21T01:17:40;92056.63;;;1.16;81.60
44481;BME280;30184;42.018;23.670;2024-02-21T01:20:12;91999.97;;;1.07;81.81
44481;BME280;30184;42.018;23.670;2024-02-21T01:22:42;92009.63;;;0.89;81.84
44481;BME280;30184;42.018;23.670;2024-02-21T01:25:11;91997.66;;;1.05;82.35
44481;BME280;30184;42.018;23.670;2024-02-21T01:27:41;92011.53;;;1.15;82.89
44481;BME280;30184;42.018;23.670;2024-02-21T01:30:11;92010.03;;;1.17;82.56
44481;BME280;30184;42.018;23.670;2024-02-21T01:32:41;92001.66;;;1.19;82.46
44481;BME280;30184;42.018;23.670;2024-02-21T01:35:12;91915.34;;;0.39;82.22
44481;BME280;30184;42.018;23.670;2024-02-21T01:37:41;91999.19;;;1.06;82.27
44481;BME280;30184;42.018;23.670;2024-02-21T01:40:11;92050.56;;;0.96;82.37
44481;BME280;30184;42.018;23.670;2024-02-21T01:42:41;91893.81;;;0.51;82.31
44481;BME280;30184;42.018;23.670;2024-02-21T01:45:10;91787.16;;;-0.17;82.30
44481;BME280;30184;42.018;23.670;2024-02-21T01:47:41;92026.44;;;1.16;82.56
44481;BME280;30184;42.018;23.670;2024-02-21T01:50:12;91982.91;;;1.15;82.43
44481;BME280;30184;42.018;23.670;2024-02-21T01:52:43;91982.53;;;1.17;82.76
44481;BME280;30184;42.018;23.670;2024-02-21T01:55:16;92011.16;;;0.67;82.74
44481;BME280;30184;42.018;23.670;2024-02-21T01:57:45;91993.50;;;1.08;82.83
44481;BME280;30184;42.018;23.670;2024-02-21T02:00:16;91776.47;;;-0.17;83.06
44481;BME280;30184;42.018;23.670;2024-02-21T02:02:45;91893.50;;;0.56;83.34
44481;BME280;30184;42.018;23.670;2024-02-21T02:05:16;91802.75;;;-0.19;83.13
44481;BME280;30184;42.018;23.670;2024-02-21T02:07:46;92036.53;;;1.26;83.40
44481;BME280;30184;42.018;23.670;2024-02-21T02:10:16;91976.06;;;1.18;83.48
44481;BME280;30184;42.018;23.670;2024-02-21T02:12:45;92052.56;;;1.03;83.22
44481;BME280;30184;42.018;23.670;2024-02-21T02:15:15;91985.63;;;1.19;83.44
44481;BME280;30184;42.018;23.670;2024-02-21T02:17:45;91899.50;;;0.50;83.35
44481;BME280;30184;42.018;23.670;2024-02-21T02:20:16;91979.44;;;1.15;83.39
44481;BME280;30184;42.018;23.670;2024-02-21T02:22:47;91815.81;;;0.12;83.58
44481;BME280;30184;42.018;23.670;2024-02-21T02:25:19;91836.19;;;0.24;83.36
44481;BME280;30184;42.018;23.670;2024-02-21T02:27:48;91970.03;;;1.24;83.49
44481;BME280;30184;42.018;23.670;2024-02-21T02:30:18;91976.88;;;1.22;83.96
44481;BME280;30184;42.018;23.670;2024-02-21T02:32:47;91906.03;;;0.79;83.91
44481;BME280;30184;42.018;23.670;2024-02-21T02:35:17;91978.13;;;1.28;83.53
44481;BME280;30184;42.018;23.670;2024-02-21T02:37:50;91978.31;;;1.16;83.54
44481;BME280;30184;42.018;23.670;2024-02-21T02:40:21;91976.22;;;1.28;83.31
44481;BME280;30184;42.018;23.670;2024-02-21T02:42:50;92011.09;;;1.12;83.21
44481;BME280;30184;42.018;23.670;2024-02-21T02:45:23;91911.13;;;0.61;82.98
44481;BME280;30184;42.018;23.670;2024-02-21T02:47:54;91969.00;;;1.32;83.29
44481;BME280;30184;42.018;23.670;2024-02-21T02:50:25;91766.72;;;-0.10;83.11
44481;BME280;30184;42.018;23.670;2024-02-21T02:52:55;92007.63;;;1.35;83.43
44481;BME280;30184;42.018;23.670;2024-02-21T02:55:26;91937.81;;;1.13;83.24
44481;BME280;30184;42.018;23.670;2024-02-21T02:57:55;91839.53;;;0.44;83.19
44481;BME280;30184;42.018;23.670;2024-02-21T03:00:25;91998.13;;;1.37;83.53
44481;BME280;30184;42.018;23.670;2024-02-21T03:02:55;91964.97;;;1.16;83.85
44481;BME280;30184;42.018;23.670;2024-02-21T03:05:24;91917.84;;;1.04;84.13
44481;BME280;30184;42.018;23.670;2024-02-21T03:07:53;91843.03;;;0.48;84.49
44481;BME280;30184;42.018;23.670;2024-02-21T03:10:23;91975.44;;;1.28;84.18
44481;BME280;30184;42.018;23.670;2024-02-21T03:12:54;91944.41;;;1.20;83.91
44481;BME280;30184;42.018;23.670;2024-02-21T03:15:24;91956.25;;;1.22;83.91
44481;BME280;30184;42.018;23.670;2024-02-21T03:17:54;91980.63;;;1.17;84.23
44481;BME280;30184;42.018;23.670;2024-02-21T03:20:23;91952.31;;;0.86;84.12
44481;BME280;30184;42.018;23.670;2024-02-21T03:22:53;91976.16;;;0.98;84.28
44481;BME280;30184;42.018;23.670;2024-02-21T03:25:22;91944.72;;;0.88;84.88
44481;BME280;30184;42.018;23.670;2024-02-21T03:27:52;91843.38;;;0.20;84.78
44481;BME280;30184;42.018;23.670;2024-02-21T03:30:22;92003.25;;;0.97;84.65
44481;BME280;30184;42.018;23.670;2024-02-21T03:32:52;91940.59;;;0.68;84.99
44481;BME280;30184;42.018;23.670;2024-02-21T03:35:22;91792.44;;;-0.66;84.84
44481;BME280;30184;42.018;23.670;2024-02-21T03:37:54;91986.25;;;0.82;85.35
44481;BME280;30184;42.018;23.670;2024-02-21T03:40:23;91746.53;;;-0.79;85.90
44481;BME280;30184;42.018;23.670;2024-02-21T03:42:52;91886.91;;;0.01;86.34
44481;BME280;30184;42.018;23.670;2024-02-21T03:45:23;91986.31;;;0.63;86.47
44481;BME280;30184;42.018;23.670;2024-02-21T03:47:53;91970.78;;;0.46;86.56
44481;BME280;30184;42.018;23.670;2024-02-21T03:50:22;91882.88;;;-0.12;86.56
44481;BME280;30184;42.018;23.670;2024-02-21T03:52:53;91997.75;;;0.41;86.45
44481;BME280;30184;42.018;23.670;2024-02-21T03:55:23;91986.19;;;0.33;86.79
44481;BME280;30184;42.018;23.670;2024-02-21T03:57:52;91948.22;;;-0.03;86.96
44481;BME280;30184;42.018;23.670;2024-02-21T04:00:23;92001.91;;;0.38;86.91
44481;BME280;30184;42.018;23.670;2024-02-21T04:02:53;92043.03;;;0.33;87.06
44481;BME280;30184;42.018;23.670;2024-02-21T04:05:23;91763.56;;;-1.26;87.05
44481;BME280;30184;42.018;23.670;2024-02-21T04:07:53;92005.09;;;0.24;87.51
44481;BME280;30184;42.018;23.670;2024-02-21T04:10:23;91981.03;;;-0.21;87.71
44481;BME280;30184;42.018;23.670;2024-02-21T04:12:52;91910.81;;;-0.48;87.77
44481;BME280;30184;42.018;23.670;2024-02-21T04:15:23;91997.84;;;0.02;88.15
44481;BME280;30184;42.018;23.670;2024-02-21T04:17:52;91991.53;;;-0.09;88.38
44481;BME280;30184;42.018;23.670;2024-02-21T04:20:22;91889.50;;;-0.87;88.02
44481;BME280;30184;42.018;23.670;2024-02-21T04:22:51;92021.84;;;0.02;88.50
44481;BME280;30184;42.018;23.670;2024-02-21T04:25:20;92023.53;;;-0.09;88.57
44481;BME280;30184;42.018;23.670;2024-02-21T04:27:50;91919.25;;;-0.65;88.57
44481;BME280;30184;42.018;23.670;2024-02-21T04:30:20;92067.91;;;-0.01;88.64
44481;BME280;30184;42.018;23.670;2024-02-21T04:32:51;91896.84;;;-0.80;88.55
44481;BME280;30184;42.018;23.670;2024-02-21T04:35:20;91808.31;;;-1.51;88.48
44481;BME280;30184;42.018;23.670;2024-02-21T04:37:50;92024.38;;;-0.05;88.93
44481;BME280;30184;42.018;23.670;2024-02-21T04:40:19;92008.81;;;-0.22;89.41
44481;BME280;30184;42.018;23.670;2024-02-21T04:42:49;92025.38;;;-0.13;89.81
44481;BME280;30184;42.018;23.670;2024-02-21T04:45:18;91930.09;;;-0.74;89.57
44481;BME280;30184;42.018;23.670;2024-02-21T04:47:48;92043.19;;;-0.17;89.68
44481;BME280;30184;42.018;23.670;2024-02-21T04:50:19;91925.28;;;-1.23;89.37
44481;BME280;30184;42.018;23.670;2024-02-21T04:52:48;92030.78;;;-0.29;89.68
44481;BME280;30184;42.018;23.670;2024-02-21T04:55:18;91890.69;;;-1.03;89.88
44481;BME280;30184;42.018;23.670;2024-02-21T04:57:47;92027.59;;;-0.34;89.97
44481;BME280;30184;42.018;23.670;2024-02-21T05:00:17;92015.63;;;-0.25;90.20
44481;BME280;30184;42.018;23.670;2024-02-21T05:02:46;91860.97;;;-1.25;90.02
44481;BME280;30184;42.018;23.670;2024-02-21T05:05:16;91944.56;;;-0.75;90.22
44481;BME280;30184;42.018;23.670;2024-02-21T05:07:47;91920.13;;;-0.96;90.46
44481;BME280;30184;42.018;23.670;2024-02-21T05:10:17;91917.16;;;-1.10;90.13
44481;BME280;30184;42.018;23.670;2024-02-21T05:12:47;91820.69;;;-1.77;90.44
44481;BME280;30184;42.018;23.670;2024-02-21T05:15:17;92082.19;;;-0.98;90.38
44481;BME280;30184;42.018;23.670;2024-02-21T05:17:46;92057.56;;;-0.41;90.31
44481;BME280;30184;42.018;23.670;2024-02-21T05:20:16;92015.19;;;-0.46;90.71
44481;BME280;30184;42.018;23.670;2024-02-21T05:22:47;92026.22;;;-0.48;90.79
44481;BME280;30184;42.018;23.670;2024-02-21T05:25:16;92024.25;;;-0.51;90.86
44481;BME280;30184;42.018;23.670;2024-02-21T05:27:45;92006.75;;;-0.67;91.25
44481;BME280;30184;42.018;23.670;2024-02-21T05:30:16;92031.75;;;-0.56;91.47
44481;BME280;30184;42.018;23.670;2024-02-21T05:32:46;91933.28;;;-1.23;91.41
44481;BME280;30184;42.018;23.670;2024-02-21T05:35:15;91828.41;;;-2.04;91.24
44481;BME280;30184;42.018;23.670;2024-02-21T05:37:45;92044.31;;;-0.57;91.50
44481;BME280;30184;42.018;23.670;2024-02-21T05:40:18;92036.66;;;-0.58;91.60
44481;BME280;30184;42.018;23.670;2024-02-21T05:42:47;91949.84;;;-1.29;91.85
44481;BME280;30184;42.018;23.670;2024-02-21T05:45:16;92042.75;;;-0.93;91.95
44481;BME280;30184;42.018;23.670;2024-02-21T05:47:45;92019.91;;;-0.94;91.85
44481;BME280;30184;42.018;23.670;2024-02-21T05:50:15;91963.16;;;-1.29;92.17
44481;BME280;30184;42.018;23.670;2024-02-21T05:52:45;92062.38;;;-0.66;92.36
44481;BME280;30184;42.018;23.670;2024-02-21T05:55:14;91951.75;;;-1.30;92.13
44481;BME280;30184;42.018;23.670;2024-02-21T05:57:45;92046.09;;;-0.96;92.36
44481;BME280;30184;42.018;23.670;2024-02-21T06:00:15;92003.28;;;-1.22;92.39
44481;BME280;30184;42.018;23.670;2024-02-21T06:02:45;92042.75;;;-0.93;92.60
44481;BME280;30184;42.018;23.670;2024-02-21T06:05:14;92009.34;;;-1.06;92.55
44481;BME280;30184;42.018;23.670;2024-02-21T06:07:44;92059.19;;;-0.56;92.69
44481;BME280;30184;42.018;23.670;2024-02-21T06:10:14;92136.94;;;-0.85;92.75
44481;BME280;30184;42.018;23.670;2024-02-21T06:12:43;92069.13;;;-0.53;92.70
44481;BME280;30184;42.018;23.670;2024-02-21T06:15:14;92053.75;;;-0.59;92.79
44481;BME280;30184;42.018;23.670;2024-02-21T06:17:43;91913.72;;;-1.46;92.57
44481;BME280;30184;42.018;23.670;2024-02-21T06:20:12;91659.22;;;-3.45;92.02
44481;BME280;30184;42.018;23.670;2024-02-21T06:22:41;92069.28;;;-0.46;92.22
44481;BME280;30184;42.018;23.670;2024-02-21T06:25:11;92045.09;;;-0.72;92.50
44481;BME280;30184;42.018;23.670;2024-02-21T06:27:40;92081.56;;;-0.41;92.48
44481;BME280;30184;42.018;23.670;2024-02-21T06:30:10;92019.38;;;-0.99;92.59
44481;BME280;30184;42.018;23.670;2024-02-21T06:32:40;92120.06;;;-0.23;92.80
44481;BME280;30184;42.018;23.670;2024-02-21T06:35:09;92108.91;;;-0.28;92.80
44481;BME280;30184;42.018;23.670;2024-02-21T06:37:38;91797.13;;;-1.75;92.44
44481;BME280;30184;42.018;23.670;2024-02-21T06:40:08;92130.41;;;-0.02;91.98
44481;BME280;30184;42.018;23.670;2024-02-21T06:42:37;91969.25;;;-0.40;91.19
44481;BME280;30184;42.018;23.670;2024-02-21T06:45:07;92090.50;;;0.66;90.50
44481;BME280;30184;42.018;23.670;2024-02-21T06:47:37;92081.63;;;0.82;89.35
44481;BME280;30184;42.018;23.670;2024-02-21T06:50:08;91986.25;;;0.36;88.54
44481;BME280;30184;42.018;23.670;2024-02-21T06:52:38;91855.56;;;-0.28;87.85
44481;BME280;30184;42.018;23.670;2024-02-21T06:55:08;91982.97;;;0.69;87.11
44481;BME280;30184;42.018;23.670;2024-02-21T06:57:37;92064.09;;;1.30;85.53
44481;BME280;30184;42.018;23.670;2024-02-21T07:00:07;92086.25;;;1.57;84.86
44481;BME280;30184;42.018;23.670;2024-02-21T07:02:37;92020.72;;;1.43;84.78
44481;BME280;30184;42.018;23.670;2024-02-21T07:05:08;91905.72;;;0.57;83.30
44481;BME280;30184;42.018;23.670;2024-02-21T07:07:37;92068.44;;;1.98;82.62
44481;BME280;30184;42.018;23.670;2024-02-21T07:10:08;91999.75;;;1.75;82.27
44481;BME280;30184;42.018;23.670;2024-02-21T07:12:38;92075.75;;;2.34;81.66
44481;BME280;30184;42.018;23.670;2024-02-21T07:15:09;91989.28;;;1.97;80.75
44481;BME280;30184;42.018;23.670;2024-02-21T07:17:38;92095.59;;;2.63;79.67
44481;BME280;30184;42.018;23.670;2024-02-21T07:20:10;92075.56;;;2.87;79.39
44481;BME280;30184;42.018;23.670;2024-02-21T07:22:39;92070.75;;;3.07;78.67
44481;BME280;30184;42.018;23.670;2024-02-21T07:25:08;92042.22;;;2.88;77.63
44481;BME280;30184;42.018;23.670;2024-02-21T07:27:37;91981.59;;;2.69;76.72
44481;BME280;30184;42.018;23.670;2024-02-21T07:30:08;92063.78;;;3.46;76.24
44481;BME280;30184;42.018;23.670;2024-02-21T07:32:39;91973.44;;;3.06;75.10
44481;BME280;30184;42.018;23.670;2024-02-21T07:35:10;92034.41;;;3.71;73.67
44481;BME280;30184;42.018;23.670;2024-02-21T07:37:39;92052.16;;;3.86;72.11
44481;BME280;30184;42.018;23.670;2024-02-21T07:40:12;92050.38;;;4.15;71.79
44481;BME280;30184;42.018;23.670;2024-02-21T07:42:43;92061.59;;;4.35;70.42
44481;BME280;30184;42.018;23.670;2024-02-21T07:45:13;91908.66;;;3.66;68.21
44481;BME280;30184;42.018;23.670;2024-02-21T07:47:42;91952.53;;;4.12;68.41
44481;BME280;30184;42.018;23.670;2024-02-21T07:50:13;92016.41;;;4.79;67.21
44481;BME280;30184;42.018;23.670;2024-02-21T07:52:42;91878.84;;;4.10;67.18
44481;BME280;30184;42.018;23.670;2024-02-21T07:55:11;91922.28;;;4.65;67.97
44481;BME280;30184;42.018;23.670;2024-02-21T07:57:41;92038.72;;;5.54;67.97
44481;BME280;30184;42.018;23.670;2024-02-21T08:00:10;92017.13;;;5.76;67.01
44481;BME280;30184;42.018;23.670;2024-02-21T08:02:45;92004.03;;;5.99;66.50
44481;BME280;30184;42.018;23.670;2024-02-21T08:05:16;91964.81;;;5.91;63.52
44481;BME280;30184;42.018;23.670;2024-02-21T08:07:45;92028.94;;;6.28;62.73
44481;BME280;30184;42.018;23.670;2024-02-21T08:10:14;92017.66;;;6.54;63.84
44481;BME280;30184;42.018;23.670;2024-02-21T08:12:43;91984.88;;;6.66;61.75
44481;BME280;30184;42.018;23.670;2024-02-21T08:15:12;91897.72;;;6.14;58.63
44481;BME280;30184;42.018;23.670;2024-02-21T08:17:41;92000.44;;;7.03;56.37
44481;BME280;30184;42.018;23.670;2024-02-21T08:20:10;92006.00;;;7.30;58.02
44481;BME280;30184;42.018;23.670;2024-02-21T08:22:41;91878.13;;;6.69;56.21
44481;BME280;30184;42.018;23.670;2024-02-21T08:25:10;91810.91;;;6.44;53.59
44481;BME280;30184;42.018;23.670;2024-02-21T08:27:39;92014.38;;;7.88;53.69
44481;BME280;30184;42.018;23.670;2024-02-21T08:30:09;92031.22;;;7.99;51.69
44481;BME280;30184;42.018;23.670;2024-02-21T08:32:38;92019.06;;;8.17;50.99
44481;BME280;30184;42.018;23.670;2024-02-21T08:35:08;91987.75;;;8.23;49.07
44481;BME280;30184;42.018;23.670;2024-02-21T08:37:37;91756.09;;;6.95;49.20
44481;BME280;30184;42.018;23.670;2024-02-21T08:40:09;91984.28;;;8.53;48.41
44481;BME280;30184;42.018;23.670;2024-02-21T08:42:39;91981.06;;;8.66;48.47
44481;BME280;30184;42.018;23.670;2024-02-21T08:45:08;91895.59;;;8.11;48.07
44481;BME280;30184;42.018;23.670;2024-02-21T08:47:39;91973.78;;;8.89;47.93
44481;BME280;30184;42.018;23.670;2024-02-21T08:50:09;92001.25;;;9.15;47.25
44481;BME280;30184;42.018;23.670;2024-02-21T08:52:41;91980.78;;;9.60;46.35
44481;BME280;30184;42.018;23.670;2024-02-21T08:55:11;91957.34;;;9.50;44.75
44481;BME280;30184;42.018;23.670;2024-02-21T08:57:40;91979.22;;;10.06;44.57
44481;BME280;30184;42.018;23.670;2024-02-21T09:00:10;91876.63;;;9.42;43.30
44481;BME280;30184;42.018;23.670;2024-02-21T09:02:41;91962.22;;;10.02;43.66
44481;BME280;30184;42.018;23.670;2024-02-21T09:05:11;91888.91;;;9.89;43.34
44481;BME280;30184;42.018;23.670;2024-02-21T09:07:40;91970.75;;;10.63;42.72
44481;BME280;30184;42.018;23.670;2024-02-21T09:10:11;91868.88;;;10.23;42.21
44481;BME280;30184;42.018;23.670;2024-02-21T09:12:40;91974.16;;;10.67;40.79
44481;BME280;30184;42.018;23.670;2024-02-21T09:15:10;91963.72;;;11.02;41.68
44481;BME280;30184;42.018;23.670;2024-02-21T09:17:39;91960.56;;;11.03;41.72
44481;BME280;30184;42.018;23.670;2024-02-21T09:20:09;91885.88;;;10.79;41.50
44481;BME280;30184;42.018;23.670;2024-02-21T09:22:39;91874.84;;;10.86;40.19
44481;BME280;30184;42.018;23.670;2024-02-21T09:25:09;91918.22;;;11.06;40.27
44481;BME280;30184;42.018;23.670;2024-02-21T09:27:40;91943.72;;;11.44;40.19
44481;BME280;30184;42.018;23.670;2024-02-21T09:30:10;91937.25;;;11.54;40.50
44481;BME280;30184;42.018;23.670;2024-02-21T09:32:39;91949.97;;;11.90;39.84
44481;BME280;30184;42.018;23.670;2024-02-21T09:35:09;91953.31;;;11.81;39.02
44481;BME280;30184;42.018;23.670;2024-02-21T09:37:40;91960.59;;;12.01;39.90
44481;BME280;30184;42.018;23.670;2024-02-21T09:40:10;91937.38;;;12.25;40.23
44481;BME280;30184;42.018;23.670;2024-02-21T09:42:41;91798.16;;;11.43;38.49
44481;BME280;30184;42.018;23.670;2024-02-21T09:45:20;91935.44;;;12.67;37.83
44481;BME280;30184;42.018;23.670;2024-02-21T09:48:05;91934.47;;;12.86;37.62
44481;BME280;30184;42.018;23.670;2024-02-21T09:50:38;91936.13;;;12.96;36.49
44481;BME280;30184;42.018;23.670;2024-02-21T09:53:09;91928.38;;;12.69;36.45
44481;BME280;30184;42.018;23.670;2024-02-21T09:55:41;91933.19;;;13.03;35.79
44481;BME280;30184;42.018;23.670;2024-02-21T09:58:12;91876.41;;;12.89;37.12
44481;BME280;30184;42.018;23.670;2024-02-21T10:00:42;91883.72;;;13.05;36.37
44481;BME280;30184;42.018;23.670;2024-02-21T10:03:11;91917.41;;;13.24;35.71
44481;BME280;30184;42.018;23.670;2024-02-21T10:05:47;91901.47;;;13.35;36.26
44481;BME280;30184;42.018;23.670;2024-02-21T10:08:18;91871.63;;;13.06;35.86
44481;BME280;30184;42.018;23.670;2024-02-21T10:10:48;91878.38;;;13.27;35.11
44481;BME280;30184;42.018;23.670;2024-02-21T10:13:26;91905.19;;;13.41;34.58
44481;BME280;30184;42.018;23.670;2024-02-21T10:16:03;91865.63;;;12.86;36.05
44481;BME280;30184;42.018;23.670;2024-02-21T10:18:32;91912.91;;;13.04;38.15
44481;BME280;30184;42.018;23.670;2024-02-21T10:21:03;91906.34;;;12.89;37.94
44481;BME280;30184;42.018;23.670;2024-02-21T10:23:44;91905.47;;;12.80;38.07
44481;BME280;30184;42.018;23.670;2024-02-21T10:26:14;91829.41;;;12.09;38.41
44481;BME280;30184;42.018;23.670;2024-02-21T10:28:45;91922.75;;;12.48;39.04
44481;BME280;30184;42.018;23.670;2024-02-21T10:31:21;91879.47;;;11.83;38.82
44481;BME280;30184;42.018;23.670;2024-02-21T10:33:55;91902.41;;;11.82;39.04
44481;BME280;30184;42.018;23.670;2024-02-21T10:36:24;91895.88;;;11.63;39.83
44481;BME280;30184;42.018;23.670;2024-02-21T10:38:54;91930.97;;;11.41;39.69
44481;BME280;30184;42.018;23.670;2024-02-21T10:41:24;91857.69;;;11.21;40.19
44481;BME280;30184;42.018;23.670;2024-02-21T10:43:56;91888.25;;;11.58;39.79
44481;BME280;30184;42.018;23.670;2024-02-21T10:46:27;91798.69;;;10.93;39.94
44481;BME280;30184;42.018;23.670;2024-02-21T10:49:03;91829.47;;;11.19;39.96
44481;BME280;30184;42.018;23.670;2024-02-21T10:51:37;91842.94;;;11.22;39.91
44481;BME280;30184;42.018;23.670;2024-02-21T10:54:21;91785.09;;;10.44;39.70
44481;BME280;30184;42.018;23.670;2024-02-21T10:56:55;91878.69;;;11.21;39.05
44481;BME280;30184;42.018;23.670;2024-02-21T10:59:27;91860.75;;;11.23;39.43
44481;BME280;30184;42.018;23.670;2024-02-21T11:01:57;91747.47;;;10.46;38.42
44481;BME280;30184;42.018;23.670;2024-02-21T11:04:27;91864.25;;;11.24;38.96
44481;BME280;30184;42.018;23.670;2024-02-21T11:06:58;91774.41;;;10.54;39.23
44481;BME280;30184;42.018;23.670;2024-02-21T11:09:30;91822.94;;;10.84;38.96
44481;BME280;30184;42.018;23.670;2024-02-21T11:12:02;91871.72;;;11.20;39.62
44481;BME280;30184;42.018;23.670;2024-02-21T11:14:33;91881.25;;;11.12;38.78
44481;BME280;30184;42.018;23.670;2024-02-21T11:17:14;91848.97;;;10.98;38.78
44481;BME280;30184;42.018;23.670;2024-02-21T11:19:44;91790.59;;;10.41;38.65
44481;BME280;30184;42.018;23.670;2024-02-21T11:22:15;91621.84;;;9.32;38.93
44481;BME280;30184;42.018;23.670;2024-02-21T11:24:45;91739.31;;;10.10;38.60
44481;BME280;30184;42.018;23.670;2024-02-21T11:27:15;91864.56;;;10.77;38.82
44481;BME280;30184;42.018;23.670;2024-02-21T11:29:47;91784.41;;;10.57;39.16
44481;BME280;30184;42.018;23.670;2024-02-21T11:32:17;91832.69;;;10.98;39.12
44481;BME280;30184;42.018;23.670;2024-02-21T11:34:55;91859.50;;;11.28;38.58
44481;BME280;30184;42.018;23.670;2024-02-21T11:37:24;91857.53;;;11.29;38.14
44481;BME280;30184;42.018;23.670;2024-02-21T11:39:53;91852.53;;;11.27;38.94
44481;BME280;30184;42.018;23.670;2024-02-21T11:42:25;91770.41;;;10.58;38.27
44481;BME280;30184;42.018;23.670;2024-02-21T11:44:56;91856.63;;;11.19;38.55
44481;BME280;30184;42.018;23.670;2024-02-21T11:47:27;91771.19;;;10.59;39.09
44481;BME280;30184;42.018;23.670;2024-02-21T11:49:57;91839.44;;;11.22;39.08
44481;BME280;30184;42.018;23.670;2024-02-21T11:52:26;91862.41;;;11.21;39.12
44481;BME280;30184;42.018;23.670;2024-02-21T11:54:56;91727.44;;;10.57;39.72
44481;BME280;30184;42.018;23.670;2024-02-21T11:57:32;91829.81;;;11.21;39.56
44481;BME280;30184;42.018;23.670;2024-02-21T12:00:13;91846.94;;;11.18;40.63
44481;BME280;30184;42.018;23.670;2024-02-21T12:02:43;91865.97;;;11.02;41.19
44481;BME280;30184;42.018;23.670;2024-02-21T12:05:12;91851.94;;;10.87;41.62
44481;BME280;30184;42.018;23.670;2024-02-21T12:07:42;91744.84;;;10.07;41.58
44481;BME280;30184;42.018;23.670;2024-02-21T12:10:11;91660.91;;;9.51;41.63
44481;BME280;30184;42.018;23.670;2024-02-21T12:12:41;91815.38;;;10.59;41.78
44481;BME280;30184;42.018;23.670;2024-02-21T12:15:11;91831.66;;;10.75;40.26
44481;BME280;30184;42.018;23.670;2024-02-21T12:17:41;91740.97;;;10.08;40.42
44481;BME280;30184;42.018;23.670;2024-02-21T12:20:10;91758.97;;;9.98;40.47
44481;BME280;30184;42.018;23.670;2024-02-21T12:22:41;91843.97;;;10.64;41.13
44481;BME280;30184;42.018;23.670;2024-02-21T12:25:17;91745.09;;;10.13;41.22
44481;BME280;30184;42.018;23.670;2024-02-21T12:27:47;91838.38;;;10.55;41.71
44481;BME280;30184;42.018;23.670;2024-02-21T12:30:18;91690.66;;;9.35;42.70
44481;BME280;30184;42.018;23.670;2024-02-21T12:32:48;91700.56;;;9.78;42.39
44481;BME280;30184;42.018;23.670;2024-02-21T12:35:17;91664.72;;;9.54;42.97
44481;BME280;30184;42.018;23.670;2024-02-21T12:37:46;91809.69;;;10.54;42.61
44481;BME280;30184;42.018;23.670;2024-02-21T12:40:16;91821.66;;;10.72;42.52
44481;BME280;30184;42.018;23.670;2024-02-21T12:42:45;91718.88;;;10.26;42.30
44481;BME280;30184;42.018;23.670;2024-02-21T12:45:14;91804.94;;;10.90;42.22
44481;BME280;30184;42.018;23.670;2024-02-21T12:47:45;91800.53;;;10.80;42.59
44481;BME280;30184;42.018;23.670;2024-02-21T12:50:14;91809.09;;;10.95;42.85
44481;BME280;30184;42.018;23.670;2024-02-21T12:52:43;91726.50;;;10.31;41.95
44481;BME280;30184;42.018;23.670;2024-02-21T12:55:13;91791.50;;;10.18;42.10
44481;BME280;30184;42.018;23.670;2024-02-21T12:57:42;91799.34;;;10.97;41.99
44481;BME280;30184;42.018;23.670;2024-02-21T13:00:15;91704.03;;;10.30;40.98
44481;BME280;30184;42.018;23.670;2024-02-21T13:02:45;91821.00;;;11.01;40.55
44481;BME280;30184;42.018;23.670;2024-02-21T13:05:14;91796.91;;;11.03;40.25
44481;BME280;30184;42.018;23.670;2024-02-21T13:07:44;91821.91;;;10.94;40.58
44481;BME280;30184;42.018;23.670;2024-02-21T13:10:14;91628.69;;;9.73;40.84